»·PEaware :: N427LJ KLAX-KSNA

N427LJ :: KLAX-KSNA

FLIGHT INFORMATION

Flight Status: Arrived
Operator: Privately registered:
United States
More flights under this callsign
Pilot: Anonymous 27948 (27948)
Aircraft: CESSNA 172 SKYHAWK
(C172)
More flights by this aircraft type
Origin: KLAX Los Angeles Intl
United States
Destination: KSNA John Wayne-Orange Co
United States
More flights between these airports :: More routes between these airports
Route: SLI8 SLI
File this flight plan on PilotEdge
Remarks: I-6 RATING
Altitude:
(Current/Filed)
4,000ft
Speed:
(Current/Filed)
120kts
Departed: 30-Aug-20 12:27 PM
Arrived: 30-Aug-20 01:09 PM
Distance/Time
Traveled:
31nm/0:42
Distance/Time
To Go:
Arrived

Flight Plot

Page will automatically refresh every two minutes.

Flight plan parsing failed; only flown route is shown


Map Options




Map Legend


Flown Route
Filed Route
Departure Airport
Arrival Airport
Navaid (VOR, NDB)
Fix

Horizontal Profiles

Position Reports

Time Latitude Longitude Heading Altitude Ground
Speed
30-Aug-20 12:03 33.933754 -118.394212 89 104ft 0kts
30-Aug-20 12:04 33.933754 -118.394212 89 104ft 0kts
30-Aug-20 12:05 33.933754 -118.394212 89 104ft 0kts
30-Aug-20 12:06 33.933754 -118.394212 89 104ft 0kts
30-Aug-20 12:07 33.933754 -118.394212 89 104ft 0kts
30-Aug-20 12:08 33.933754 -118.394212 89 104ft 0kts
30-Aug-20 12:09 33.933754 -118.394212 89 104ft 0kts
30-Aug-20 12:10 33.933754 -118.394212 89 104ft 0kts
30-Aug-20 12:11 33.933754 -118.394212 89 104ft 0kts
30-Aug-20 12:12 33.933754 -118.394212 89 104ft 0kts
30-Aug-20 12:13 33.933754 -118.394212 89 104ft 0kts
30-Aug-20 12:14 33.933754 -118.394212 89 104ft 0kts
30-Aug-20 12:15 33.933754 -118.394212 89 104ft 0kts
30-Aug-20 12:17 33.933754 -118.394212 89 104ft 0kts
30-Aug-20 12:18 33.933754 -118.394212 89 104ft 0kts
30-Aug-20 12:19 33.933754 -118.394212 89 104ft 0kts
30-Aug-20 12:20 33.933754 -118.394212 89 104ft 0kts
30-Aug-20 12:21 33.934871 -118.393659 45 103ft 13kts
30-Aug-20 12:22 33.935363 -118.390336 85 102ft 7kts
30-Aug-20 12:23 33.935748 -118.386529 81 99ft 10kts
30-Aug-20 12:24 33.936113 -118.383121 51 96ft 3kts
30-Aug-20 12:25 33.936114 -118.383118 51 96ft 0kts
30-Aug-20 12:26 33.937226 -118.383061 300 96ft 15kts
30-Aug-20 12:27 33.935452 -118.404934 262 837ft 78kts
30-Aug-20 12:28 33.932640 -118.431400 262 1866ft 81kts
30-Aug-20 12:29 33.916122 -118.446893 176 2836ft 82kts
30-Aug-20 12:30 33.893395 -118.443000 171 3751ft 83kts
30-Aug-20 12:31 33.866470 -118.438188 171 4048ft 114kts
30-Aug-20 12:32 33.834669 -118.432573 171 4045ft 117kts
30-Aug-20 12:33 33.802415 -118.426876 171 4045ft 117kts
30-Aug-20 12:34 33.770009 -118.421151 171 4045ft 117kts
30-Aug-20 12:34 33.744892 -118.411929 120 4042ft 117kts
30-Aug-20 12:35 33.753912 -118.375980 75 4045ft 117kts
30-Aug-20 12:37 33.759252 -118.330466 84 4045ft 117kts
30-Aug-20 12:38 33.762701 -118.291453 84 4045ft 117kts
30-Aug-20 12:38 33.765566 -118.258860 84 4045ft 117kts
30-Aug-20 12:39 33.768990 -118.219763 84 4045ft 117kts
30-Aug-20 12:41 33.772975 -118.174078 84 4045ft 117kts
30-Aug-20 12:41 33.775810 -118.141460 84 4045ft 117kts
30-Aug-20 12:42 33.779194 -118.102393 84 4045ft 117kts
30-Aug-20 12:43 33.782579 -118.063145 84 4045ft 117kts
30-Aug-20 12:44 33.794663 -118.026710 64 4045ft 117kts
30-Aug-20 12:45 33.808845 -117.991359 64 4045ft 117kts
30-Aug-20 12:46 33.823112 -117.955887 64 4045ft 117kts
30-Aug-20 12:47 33.837361 -117.920428 64 4045ft 117kts
30-Aug-20 12:48 33.851605 -117.884943 64 4045ft 117kts
30-Aug-20 12:49 33.865872 -117.849363 64 4045ft 117kts
30-Aug-20 12:50 33.880065 -117.813932 64 4045ft 117kts
30-Aug-20 12:51 33.894277 -117.778414 64 4045ft 117kts
30-Aug-20 12:52 33.908466 -117.742917 64 4045ft 118kts
30-Aug-20 12:53 33.925777 -117.710343 29 3921ft 118kts
30-Aug-20 12:54 33.954487 -117.691955 27 3546ft 113kts
30-Aug-20 12:55 33.979127 -117.693110 281 3543ft 106kts
30-Aug-20 12:56 33.956933 -117.709156 185 3546ft 108kts
30-Aug-20 12:57 33.926665 -117.712546 185 3546ft 111kts
30-Aug-20 12:58 33.900018 -117.725968 208 3445ft 98kts
30-Aug-20 12:59 33.875673 -117.741720 207 3445ft 100kts
30-Aug-20 13:00 33.850903 -117.757540 207 3444ft 101kts
30-Aug-20 13:01 33.826099 -117.773399 207 2856ft 98kts
30-Aug-20 13:02 33.802711 -117.788215 207 2711ft 98kts
30-Aug-20 13:03 33.779739 -117.802822 207 2248ft 90kts
30-Aug-20 13:04 33.757923 -117.816681 207 1778ft 88kts
30-Aug-20 13:05 33.736002 -117.830602 207 1296ft 91kts
30-Aug-20 13:06 33.714346 -117.844346 207 815ft 86kts
30-Aug-20 13:07 33.693112 -117.857813 207 351ft 86kts
30-Aug-20 13:08 33.676097 -117.868568 218 60ft 29kts
30-Aug-20 13:09 33.675931 -117.869728 298 60ft 0kts
30-Aug-20 13:10 33.676124 -117.870860 210 60ft 0kts

Navigation Log

Ident Type
Flight plan parsing failed, navigation log unavailable